Time;durP1;ratioP1;P1;durP2;ratioP2;P2;SDS_P1;SDS_P2;PMS_P1;PMS_P2;Temp;Humidity;BMP_temperature;BMP_pressure;BME280_temperature;BME280_humidity;BME280_pressure;Samples;Min_cycle;Max_cycle;Signal;HPM_P1;HPM_P2
2021/11/20 00:01:10;;;;;;;3.65;2.58;;;10.00;65.00;;;;;;4938219;29;20039;-83
2021/11/20 00:03:38;;;;;;;4.13;3.40;;;10.10;65.10;;;;;;4894911;29;20072;-90
2021/11/20 00:06:05;;;;;;;3.67;2.67;;;10.00;65.00;;;;;;4891146;29;20507;-90
2021/11/20 00:08:31;;;;;;;3.38;2.60;;;10.00;65.00;;;;;;4906411;29;20032;-88
2021/11/20 00:11:01;;;;;;;4.60;2.85;;;10.00;65.00;;;;;;4907898;29;20083;-92
2021/11/20 00:13:27;;;;;;;4.10;2.55;;;10.00;65.00;;;;;;4907396;29;20040;-87
2021/11/20 00:15:57;;;;;;;3.65;2.92;;;10.10;65.10;;;;;;4908008;29;20549;-90
2021/11/20 00:18:23;;;;;;;4.13;2.60;;;10.00;64.90;;;;;;4910565;29;20039;-89
2021/11/20 00:20:55;;;;;;;2.97;2.47;;;10.00;65.00;;;;;;4911313;29;20104;-91
2021/11/20 00:23:35;;;;;;;3.55;2.53;;;10.10;65.00;;;;;;4908218;29;20036;-89
2021/11/20 00:26:02;;;;;;;3.25;2.60;;;10.10;65.10;;;;;;4906070;29;20412;-90
2021/11/20 00:28:41;;;;;;;3.72;2.60;;;10.00;64.90;;;;;;4908409;29;20539;-88
2021/11/20 00:31:14;;;;;;;3.53;2.42;;;10.00;65.00;;;;;;4908451;29;20539;-89
2021/11/20 00:33:41;;;;;;;3.00;2.30;;;10.00;65.00;;;;;;4890922;29;20039;-89
2021/11/20 00:36:09;;;;;;;2.90;2.33;;;10.10;65.10;;;;;;4894872;29;20032;-91
2021/11/20 00:38:35;;;;;;;3.10;2.30;;;10.00;65.00;;;;;;4891897;29;20046;-90
2021/11/20 00:41:07;;;;;;;3.83;2.80;;;10.10;65.10;;;;;;4889675;29;20033;-91
2021/11/20 00:43:33;;;;;;;3.42;2.53;;;10.10;65.10;;;;;;4909401;29;20043;-89
2021/11/20 00:45:59;;;;;;;3.63;2.40;;;10.00;65.10;;;;;;4910620;29;20411;-85
2021/11/20 00:48:26;;;;;;;3.40;2.22;;;10.00;65.00;;;;;;4898417;29;20039;-89
2021/11/20 00:50:56;;;;;;;2.38;2.00;;;10.10;65.10;;;;;;4909895;29;20414;-90
2021/11/20 00:53:23;;;;;;;2.58;1.83;;;10.00;65.00;;;;;;4909423;29;20044;-87
2021/11/20 00:55:50;;;;;;;2.40;1.90;;;10.00;65.00;;;;;;4913258;29;20048;-91
2021/11/20 00:58:16;;;;;;;2.92;2.17;;;10.00;65.00;;;;;;4912195;29;20039;-93
2021/11/20 01:00:50;;;;;;;2.47;1.75;;;10.10;65.10;;;;;;4894200;29;20037;-94
2021/11/20 01:03:19;;;;;;;2.30;2.10;;;10.10;65.10;;;;;;4896147;29;20035;-92
2021/11/20 01:05:45;;;;;;;2.72;2.00;;;10.10;65.00;;;;;;4911267;29;20558;-88
2021/11/20 01:08:13;;;;;;;3.00;2.10;;;10.00;65.00;;;;;;4890799;29;20376;-89
2021/11/20 01:10:43;;;;;;;2.25;1.98;;;10.00;65.10;;;;;;4913837;29;20039;-86
2021/11/20 01:13:09;;;;;;;2.88;1.98;;;10.10;65.10;;;;;;4901452;29;20039;-88
2021/11/20 01:15:40;;;;;;;1.80;1.50;;;10.10;65.10;;;;;;4891099;29;20962;-82
2021/11/20 01:18:09;;;;;;;1.70;1.48;;;10.00;65.00;;;;;;4906171;29;20538;-86
2021/11/20 01:20:40;;;;;;;2.47;1.90;;;10.00;65.50;;;;;;4894758;29;20043;-92
2021/11/20 01:23:07;;;;;;;1.83;1.48;;;10.00;65.00;;;;;;4891617;29;20029;-89
2021/11/20 01:25:43;;;;;;;1.60;1.50;;;10.00;65.00;;;;;;4894906;29;20087;-88
2021/11/20 01:28:23;;;;;;;2.33;1.73;;;10.10;65.00;;;;;;4891040;29;20126;-89
2021/11/20 01:30:57;;;;;;;3.17;2.13;;;10.00;65.00;;;;;;4906062;29;20148;-90
2021/11/20 01:33:45;;;;;;;2.97;1.90;;;10.00;64.90;;;;;;4907064;29;20040;-89
2021/11/20 01:36:15;;;;;;;2.20;1.65;;;10.00;64.90;;;;;;4891476;29;20036;-92
2021/11/20 01:38:43;;;;;;;1.63;1.40;;;10.00;64.90;;;;;;4873905;29;20065;-88
2021/11/20 01:41:14;;;;;;;1.90;1.48;;;10.00;64.80;;;;;;4891981;29;20036;-92
2021/11/20 01:44:21;;;;;;;2.08;1.88;;;10.00;64.80;;;;;;4893826;29;20028;-94
2021/11/20 01:46:54;;;;;;;2.10;1.67;;;10.00;64.80;;;;;;4890514;29;20135;-89
2021/11/20 01:49:31;;;;;;;2.40;1.50;;;10.00;64.80;;;;;;4893211;29;20135;-89
2021/11/20 01:52:23;;;;;;;2.00;1.67;;;10.00;64.80;;;;;;4888204;29;20123;-90
2021/11/20 01:55:21;;;;;;;1.90;1.58;;;10.00;64.70;;;;;;4889307;29;20043;-90
2021/11/20 01:58:22;;;;;;;1.77;1.55;;;10.00;64.80;;;;;;4901332;29;20036;-88
2021/11/20 02:01:06;;;;;;;2.00;1.60;;;10.00;64.80;;;;;;4879650;29;20480;-90
2021/11/20 02:03:55;;;;;;;2.10;1.55;;;10.00;64.70;;;;;;4890661;29;20042;-88
2021/11/20 02:06:45;;;;;;;1.70;1.60;;;10.00;64.80;;;;;;4888464;29;20056;-91
2021/11/20 02:09:39;;;;;;;2.25;1.83;;;10.00;64.80;;;;;;4886812;29;20039;-90
2021/11/20 02:12:25;;;;;;;2.17;1.63;;;10.00;64.80;;;;;;4904457;29;20079;-92
2021/11/20 02:14:53;;;;;;;2.65;1.75;;;10.00;64.90;;;;;;4882471;29;20029;-91
2021/11/20 02:17:34;;;;;;;1.67;1.45;;;10.00;65.00;;;;;;4907616;29;20451;-90
2021/11/20 02:20:10;;;;;;;2.10;1.50;;;10.00;64.90;;;;;;4874103;29;20086;-89
2021/11/20 02:22:38;;;;;;;1.65;1.40;;;10.00;64.80;;;;;;4894699;29;20104;-84
2021/11/20 02:25:06;;;;;;;2.20;1.98;;;10.00;64.90;;;;;;4891611;29;20484;-88
2021/11/20 02:27:57;;;;;;;2.70;1.95;;;10.00;64.80;;;;;;4897675;29;20923;-86
2021/11/20 02:30:40;;;;;;;2.15;1.60;;;10.00;64.90;;;;;;4892832;29;20037;-89
2021/11/20 02:33:14;;;;;;;2.08;1.80;;;10.00;64.80;;;;;;4904430;29;20040;-89
2021/11/20 02:35:52;;;;;;;2.33;1.80;;;10.00;64.90;;;;;;4887354;29;20436;-93
2021/11/20 02:38:24;;;;;;;2.92;1.95;;;10.00;65.00;;;;;;4892274;29;20040;-90
2021/11/20 02:40:51;;;;;;;2.25;1.60;;;10.00;65.00;;;;;;4910044;29;20031;-90
2021/11/20 02:43:19;;;;;;;7.47;2.17;;;10.00;64.90;;;;;;4895249;29;20119;-91
2021/11/20 02:45:59;;;;;;;2.85;1.77;;;10.00;65.00;;;;;;4887548;29;20040;-87
2021/11/20 02:48:27;;;;;;;1.55;1.45;;;9.90;64.80;;;;;;4894893;29;20032;-93
2021/11/20 02:51:08;;;;;;;2.90;1.85;;;10.00;64.90;;;;;;4882630;29;20047;-86
2021/11/20 02:53:37;;;;;;;2.50;2.05;;;10.00;64.80;;;;;;4897057;29;20526;-94
2021/11/20 02:56:09;;;;;;;3.03;1.80;;;10.00;64.80;;;;;;4909429;29;20419;-94
2021/11/20 02:58:37;;;;;;;2.72;1.92;;;10.00;65.00;;;;;;4896404;29;20048;-93
2021/11/20 03:01:35;;;;;;;2.95;2.17;;;10.00;64.90;;;;;;4891409;29;20042;-90
2021/11/20 03:04:07;;;;;;;2.88;1.90;;;10.00;65.00;;;;;;4887026;29;20529;-93
2021/11/20 03:06:34;;;;;;;2.95;2.00;;;10.00;65.00;;;;;;4893352;29;20075;-92
2021/11/20 03:09:01;;;;;;;4.72;2.60;;;10.00;65.00;;;;;;4892638;29;20055;-95
2021/11/20 03:11:28;;;;;;;3.60;2.50;;;10.00;65.00;;;;;;4911058;29;20399;-93
2021/11/20 03:13:56;;;;;;;3.90;2.38;;;9.90;65.00;;;;;;4897075;29;20024;-94
2021/11/20 03:16:39;;;;;;;3.47;2.30;;;10.00;64.80;;;;;;4893473;29;20043;-87
2021/11/20 03:19:06;;;;;;;3.35;2.55;;;10.00;64.80;;;;;;4893808;29;20188;-90
2021/11/20 03:21:34;;;;;;;4.18;3.13;;;10.00;64.80;;;;;;4893010;29;20036;-89
2021/11/20 03:24:06;;;;;;;4.63;3.05;;;9.90;64.70;;;;;;4890538;29;20028;-87
2021/11/20 03:26:33;;;;;;;5.47;3.67;;;10.00;64.80;;;;;;4880784;29;20067;-89
2021/11/20 03:29:00;;;;;;;4.22;2.97;;;9.90;64.70;;;;;;4894343;29;20035;-90
2021/11/20 03:31:26;;;;;;;4.82;3.15;;;9.90;64.60;;;;;;4892005;29;20083;-89
2021/11/20 03:33:52;;;;;;;4.18;2.90;;;10.00;64.70;;;;;;4894827;29;20039;-90
2021/11/20 03:36:18;;;;;;;4.60;3.17;;;10.00;64.50;;;;;;4912261;29;20052;-82
2021/11/20 03:38:45;;;;;;;4.47;3.25;;;10.00;64.50;;;;;;4915430;29;20107;-92
2021/11/20 03:41:14;;;;;;;3.97;2.78;;;10.00;64.60;;;;;;4879766;29;20038;-92
2021/11/20 03:43:40;;;;;;;3.10;2.55;;;9.90;64.50;;;;;;4896573;29;20055;-91
2021/11/20 03:46:07;;;;;;;4.30;2.75;;;10.00;64.50;;;;;;4891174;29;20037;-90
2021/11/20 03:48:34;;;;;;;3.20;2.60;;;10.00;64.50;;;;;;4878128;29;20507;-92
2021/11/20 03:51:01;;;;;;;3.50;2.42;;;10.00;64.40;;;;;;4889706;29;20067;-91
2021/11/20 03:53:28;;;;;;;2.60;2.22;;;10.00;64.40;;;;;;4892026;29;20134;-87
2021/11/20 03:55:55;;;;;;;3.17;2.40;;;9.90;64.40;;;;;;4895297;29;20606;-85
2021/11/20 03:58:21;;;;;;;2.10;1.90;;;10.00;64.40;;;;;;4895757;29;20126;-92
2021/11/20 04:00:55;;;;;;;3.67;2.10;;;10.00;64.40;;;;;;4892393;29;20028;-91
2021/11/20 04:03:24;;;;;;;2.70;1.70;;;9.90;64.40;;;;;;4877141;29;20642;-92
2021/11/20 04:05:52;;;;;;;2.88;1.60;;;9.90;64.40;;;;;;4890005;29;20044;-92
2021/11/20 04:08:19;;;;;;;3.95;1.85;;;9.90;64.40;;;;;;4894756;29;20583;-91
2021/11/20 04:10:56;;;;;;;3.03;1.55;;;9.90;64.40;;;;;;4891417;29;20387;-92
2021/11/20 04:13:23;;;;;;;1.90;1.40;;;9.90;64.40;;;;;;4905675;29;20044;-89
2021/11/20 04:15:50;;;;;;;1.92;1.48;;;9.90;64.30;;;;;;4891939;29;20091;-89
2021/11/20 04:18:17;;;;;;;2.13;1.55;;;9.90;64.40;;;;;;4895387;29;20646;-85
2021/11/20 04:20:43;;;;;;;1.85;1.20;;;9.90;64.40;;;;;;4905434;29;20036;-92
2021/11/20 04:23:11;;;;;;;1.58;1.30;;;9.90;64.40;;;;;;4890926;29;20127;-88
2021/11/20 04:25:38;;;;;;;1.60;1.33;;;9.90;64.30;;;;;;4889145;29;20036;-90
2021/11/20 04:28:05;;;;;;;2.83;1.13;;;9.90;64.30;;;;;;4890866;29;20025;-89
2021/11/20 04:30:54;;;;;;;2.20;1.38;;;9.90;64.30;;;;;;4905959;29;20032;-91
2021/11/20 04:33:20;;;;;;;1.77;1.35;;;9.90;64.40;;;;;;4887696;29;20044;-91
2021/11/20 04:35:46;;;;;;;2.13;1.08;;;9.80;64.30;;;;;;4889049;29;20045;-91
2021/11/20 04:38:15;;;;;;;2.63;1.30;;;9.90;64.40;;;;;;4875075;29;20140;-85
2021/11/20 04:40:42;;;;;;;2.03;1.33;;;9.90;64.40;;;;;;4906789;29;20044;-90
2021/11/20 04:43:09;;;;;;;1.20;1.10;;;9.80;64.30;;;;;;4890974;29;20127;-88
2021/11/20 04:45:38;;;;;;;1.63;1.20;;;9.80;64.40;;;;;;4895849;29;20048;-78
2021/11/20 04:48:06;;;;;;;3.13;1.27;;;9.80;64.30;;;;;;4904854;29;20036;-89
2021/11/20 04:50:43;;;;;;;0.93;0.80;;;9.80;64.40;;;;;;4891402;29;20038;-89
2021/11/20 04:53:11;;;;;;;1.17;1.00;;;9.80;64.40;;;;;;4907057;29;20060;-89
2021/11/20 04:55:37;;;;;;;1.90;1.00;;;9.90;64.40;;;;;;4893742;29;20487;-89
2021/11/20 04:58:07;;;;;;;2.00;1.38;;;9.80;64.40;;;;;;4890505;29;20119;-91
2021/11/20 05:00:40;;;;;;;1.38;0.95;;;9.90;64.50;;;;;;4886340;29;20067;-91
2021/11/20 05:03:07;;;;;;;1.55;0.80;;;9.80;64.40;;;;;;4889881;29;20043;-92
2021/11/20 05:05:42;;;;;;;2.28;1.25;;;9.80;64.50;;;;;;4890813;29;20141;-91
2021/11/20 05:08:10;;;;;;;1.10;0.90;;;9.80;64.50;;;;;;4885366;29;20046;-93
2021/11/20 05:10:38;;;;;;;3.00;0.93;;;9.80;64.40;;;;;;4891391;29;20048;-89
2021/11/20 05:13:05;;;;;;;1.73;1.15;;;9.80;64.40;;;;;;4888786;29;20041;-91
2021/11/20 05:15:33;;;;;;;1.77;1.38;;;9.90;64.40;;;;;;4887668;29;20535;-92
2021/11/20 05:17:59;;;;;;;1.33;1.23;;;9.80;64.50;;;;;;4890728;29;21096;-93
2021/11/20 05:20:44;;;;;;;1.20;1.10;;;9.80;64.40;;;;;;4889416;29;20043;-89
2021/11/20 05:23:11;;;;;;;2.92;1.17;;;9.80;64.50;;;;;;4887905;29;20088;-91
2021/11/20 05:25:39;;;;;;;1.77;1.10;;;9.80;64.50;;;;;;4888490;29;21062;-89
2021/11/20 05:28:05;;;;;;;1.38;1.00;;;9.80;64.40;;;;;;4879556;29;20056;-90
2021/11/20 05:30:37;;;;;;;2.47;1.30;;;9.80;64.50;;;;;;4889220;29;20044;-92
2021/11/20 05:33:12;;;;;;;1.45;1.15;;;9.80;64.40;;;;;;4888327;29;20033;-88
2021/11/20 05:35:39;;;;;;;2.67;1.45;;;9.80;64.40;;;;;;4885173;29;20037;-90
2021/11/20 05:38:06;;;;;;;3.25;1.30;;;9.80;64.50;;;;;;4884158;29;20544;-92
2021/11/20 05:40:33;;;;;;;3.17;1.30;;;9.80;64.50;;;;;;4870038;29;20560;-91
2021/11/20 05:43:03;;;;;;;3.03;1.30;;;9.80;64.50;;;;;;4887861;29;20449;-85
2021/11/20 05:45:33;;;;;;;2.63;1.15;;;9.80;64.40;;;;;;4886049;29;20036;-90
2021/11/20 05:47:59;;;;;;;2.53;1.48;;;9.80;64.40;;;;;;4876456;29;20041;-92
2021/11/20 05:50:27;;;;;;;2.40;1.25;;;9.80;65.10;;;;;;4874880;29;20033;-92
2021/11/20 05:52:54;;;;;;;1.65;1.50;;;9.80;64.40;;;;;;4888027;29;20036;-92
2021/11/20 05:55:24;;;;;;;1.50;1.40;;;9.80;64.50;;;;;;4895069;29;20047;-91
2021/11/20 05:57:51;;;;;;;2.03;1.60;;;9.80;64.60;;;;;;4874940;29;20043;-84
2021/11/20 06:00:29;;;;;;;4.15;1.83;;;9.80;64.50;;;;;;4900002;29;20036;-81
2021/11/20 06:02:59;;;;;;;2.55;1.67;;;9.80;64.50;;;;;;4893697;29;20055;-86
2021/11/20 06:05:57;;;;;;;2.60;2.10;;;9.80;64.50;;;;;;4891981;29;20048;-90
2021/11/20 06:08:24;;;;;;;2.63;1.85;;;9.80;64.50;;;;;;4890850;29;20532;-92
2021/11/20 06:10:56;;;;;;;2.50;2.03;;;9.80;64.60;;;;;;4908381;29;20039;-92
2021/11/20 06:13:23;;;;;;;3.67;2.10;;;9.80;64.60;;;;;;4893992;29;20040;-95
2021/11/20 06:16:08;;;;;;;3.50;2.08;;;9.80;64.50;;;;;;4893948;29;20040;-89
2021/11/20 06:18:34;;;;;;;2.10;1.85;;;9.80;64.60;;;;;;4897921;29;20175;-93
2021/11/20 06:21:03;;;;;;;3.20;2.15;;;9.80;64.60;;;;;;4894335;29;20051;-93
2021/11/20 06:23:32;;;;;;;3.05;2.20;;;9.80;64.60;;;;;;4898928;29;20032;-93
2021/11/20 06:26:05;;;;;;;2.58;2.20;;;9.80;64.60;;;;;;4886155;29;20072;-92
2021/11/20 06:28:33;;;;;;;3.28;2.20;;;9.80;64.60;;;;;;4910054;29;20487;-91
2021/11/20 06:30:59;;;;;;;4.30;2.30;;;9.80;64.60;;;;;;4876532;29;20040;-86
2021/11/20 06:33:27;;;;;;;2.53;2.20;;;9.80;64.60;;;;;;4890401;29;20207;-92
2021/11/20 06:36:02;;;;;;;4.28;2.35;;;9.80;64.50;;;;;;4892846;29;20039;-93
2021/11/20 06:38:39;;;;;;;4.00;2.78;;;9.80;64.50;;;;;;4894046;29;20036;-91
2021/11/20 06:41:10;;;;;;;5.25;2.88;;;9.80;64.50;;;;;;4915514;29;20044;-93
2021/11/20 06:43:37;;;;;;;2.90;2.40;;;9.90;64.50;;;;;;4902265;29;20032;-91
2021/11/20 06:46:16;;;;;;;3.95;2.22;;;9.90;64.50;;;;;;4897327;29;20028;-92
2021/11/20 06:48:43;;;;;;;4.43;3.00;;;9.80;64.50;;;;;;4882472;29;20035;-96
2021/11/20 06:51:19;;;;;;;4.05;2.70;;;9.80;64.50;;;;;;4901764;29;20399;-93
2021/11/20 06:54:05;;;;;;;5.38;3.13;;;9.80;64.60;;;;;;4923273;29;20047;-93
2021/11/20 06:57:04;;;;;;;4.82;3.05;;;9.80;64.60;;;;;;4964442;23;20061;-91
2021/11/20 07:00:26;;;;;;;3.50;2.70;;;9.80;64.60;;;;;;4882265;29;20053;-91
2021/11/20 07:03:16;;;;;;;4.15;2.90;;;9.90;64.80;;;;;;4888241;29;20048;-92
2021/11/20 07:05:47;;;;;;;5.50;3.05;;;9.90;66.40;;;;;;4880446;29;20028;-90
2021/11/20 07:08:15;;;;;;;5.18;2.40;;;9.90;66.80;;;;;;4898073;29;20037;-92
2021/11/20 07:10:42;;;;;;;3.65;2.17;;;10.00;67.20;;;;;;4901588;29;20037;-87
2021/11/20 07:13:09;;;;;;;5.15;2.55;;;10.00;67.50;;;;;;4914166;29;20168;-90
2021/11/20 07:15:36;;;;;;;6.97;2.50;;;10.10;67.80;;;;;;4880079;29;20044;-86
2021/11/20 07:18:03;;;;;;;5.57;2.30;;;10.10;68.00;;;;;;4867695;29;20057;-93
2021/11/20 07:20:52;;;;;;;5.40;2.80;;;10.20;68.40;;;;;;4888920;29;20052;-91
2021/11/20 07:23:18;;;;;;;5.93;2.45;;;10.20;68.70;;;;;;4891486;29;20044;-88
2021/11/20 07:25:45;;;;;;;3.92;2.20;;;10.20;69.10;;;;;;4892895;29;20028;-90
2021/11/20 07:28:13;;;;;;;4.85;2.55;;;10.30;69.50;;;;;;4892952;29;20040;-95
2021/11/20 07:30:40;;;;;;;7.40;2.40;;;10.30;69.60;;;;;;4893454;29;20032;-91
2021/11/20 07:33:09;;;;;;;3.95;2.30;;;10.40;69.80;;;;;;4879605;29;20039;-92
2021/11/20 07:35:38;;;;;;;6.45;2.55;;;10.40;70.00;;;;;;4875798;29;20044;-91
2021/11/20 07:38:07;;;;;;;7.15;2.65;;;10.50;70.10;;;;;;4884498;29;20068;-86
2021/11/20 07:40:35;;;;;;;3.85;2.10;;;10.50;70.00;;;;;;4883497;29;20139;-93
2021/11/20 07:43:02;;;;;;;3.10;2.30;;;10.60;70.20;;;;;;4881732;29;20028;-89
2021/11/20 07:45:47;;;;;;;3.47;2.05;;;10.60;70.30;;;;;;4897534;29;20133;-89
2021/11/20 07:48:16;;;;;;;4.07;2.30;;;10.60;70.20;;;;;;4867991;29;20131;-91
2021/11/20 07:50:45;;;;;;;5.45;2.35;;;10.70;70.40;;;;;;4863966;29;20095;-89
2021/11/20 07:53:28;;;;;;;5.53;2.63;;;10.70;70.30;;;;;;4884846;29;20048;-92
2021/11/20 07:55:56;;;;;;;109.32;6.93;;;10.70;70.30;;;;;;4880747;29;20101;-89
2021/11/20 07:58:23;;;;;;;31.13;3.60;;;10.80;72.60;;;;;;4894480;29;20057;-90
2021/11/20 08:00:50;;;;;;;14.48;2.53;;;10.90;72.70;;;;;;4890996;29;20104;-91
2021/11/20 08:03:17;;;;;;;10.52;2.63;;;10.90;72.20;;;;;;4878945;29;20177;-90
2021/11/20 08:05:53;;;;;;;7.57;2.67;;;10.90;72.00;;;;;;4860537;29;20083;-91
2021/11/20 08:08:40;;;;;;;6.03;2.45;;;11.00;72.30;;;;;;4841624;29;20421;-92
2021/11/20 08:11:19;;;;;;;7.57;2.30;;;11.00;71.40;;;;;;4841889;29;20053;-91
2021/11/20 08:13:46;;;;;;;4.95;2.30;;;11.00;71.30;;;;;;4855648;29;20064;-90
2021/11/20 08:16:38;;;;;;;4.80;2.38;;;11.10;71.30;;;;;;4895380;29;20455;-84
2021/11/20 08:19:23;;;;;;;4.22;2.30;;;11.10;71.20;;;;;;4881098;29;20048;-85
2021/11/20 08:22:07;;;;;;;6.95;2.45;;;11.10;71.30;;;;;;4881898;29;20033;-84
2021/11/20 08:24:35;;;;;;;3.97;2.33;;;11.10;71.30;;;;;;4875897;29;20045;-84
2021/11/20 08:27:02;;;;;;;4.25;2.45;;;11.10;71.30;;;;;;4872920;29;20123;-84
2021/11/20 08:29:37;;;;;;;4.88;2.30;;;11.20;71.30;;;;;;4887451;29;20041;-85
2021/11/20 08:32:06;;;;;;;3.92;2.03;;;11.20;71.20;;;;;;4870539;29;20040;-88
2021/11/20 08:34:45;;;;;;;3.58;1.83;;;11.20;71.40;;;;;;4872297;29;20583;-88
2021/11/20 08:37:27;;;;;;;4.30;1.88;;;11.20;71.20;;;;;;4874318;29;20041;-90
2021/11/20 08:40:00;;;;;;;4.43;2.05;;;11.30;71.10;;;;;;4869145;29;20086;-85
2021/11/20 08:42:26;;;;;;;4.25;2.40;;;11.30;70.90;;;;;;4873174;29;20587;-89
2021/11/20 08:44:53;;;;;;;4.25;2.70;;;11.30;70.90;;;;;;4861215;29;20131;-89
2021/11/20 08:47:27;;;;;;;4.50;2.72;;;11.30;71.10;;;;;;4874983;29;20453;-88
2021/11/20 08:49:54;;;;;;;4.80;2.90;;;11.30;71.20;;;;;;4875196;29;20032;-87
2021/11/20 08:52:21;;;;;;;4.13;2.60;;;11.30;71.20;;;;;;4872600;29;20045;-93
2021/11/20 08:54:47;;;;;;;4.30;2.70;;;11.40;71.30;;;;;;4876637;29;20476;-93
2021/11/20 08:57:14;;;;;;;6.25;2.75;;;11.40;71.40;;;;;;4874164;29;20041;-88
2021/11/20 08:59:42;;;;;;;5.10;2.70;;;11.40;71.50;;;;;;4872378;29;20036;-85
2021/11/20 09:02:29;;;;;;;5.85;2.70;;;11.40;71.60;;;;;;4872196;29;20029;-87
2021/11/20 09:05:23;;;;;;;13.70;3.00;;;11.40;73.20;;;;;;4872221;29;20047;-86
2021/11/20 09:07:55;;;;;;;6.82;3.10;;;11.50;73.30;;;;;;4886710;29;20504;-90
2021/11/20 09:10:36;;;;;;;7.93;2.90;;;11.50;73.30;;;;;;4885523;29;20033;-88
2021/11/20 09:13:05;;;;;;;9.98;2.95;;;11.50;73.60;;;;;;4887099;29;20037;-87
2021/11/20 09:15:38;;;;;;;6.95;2.80;;;11.60;73.80;;;;;;4871672;29;20062;-87
2021/11/20 09:18:20;;;;;;;5.88;2.63;;;11.60;73.90;;;;;;4871326;29;20044;-84
2021/11/20 09:20:51;;;;;;;7.80;2.78;;;11.60;73.90;;;;;;4870121;29;20037;-86
2021/11/20 09:23:35;;;;;;;7.03;2.67;;;11.60;73.90;;;;;;4871270;29;20136;-86
2021/11/20 09:26:10;;;;;;;11.07;2.58;;;11.70;74.10;;;;;;4885483;29;20065;-86
2021/11/20 09:28:36;;;;;;;4.25;2.63;;;11.70;74.00;;;;;;4872884;29;20615;-85
2021/11/20 09:31:06;;;;;;;6.95;2.53;;;11.70;74.30;;;;;;4869515;29;20033;-87
2021/11/20 09:33:33;;;;;;;8.13;2.38;;;11.70;74.10;;;;;;4872843;29;20045;-86
2021/11/20 09:35:59;;;;;;;5.82;2.53;;;11.70;74.00;;;;;;4891256;29;20040;-87
2021/11/20 09:38:42;;;;;;;6.15;2.05;;;11.70;74.10;;;;;;4886128;29;20038;-88
2021/11/20 09:41:15;;;;;;;4.63;2.25;;;11.80;74.10;;;;;;4871395;29;20045;-90
2021/11/20 09:43:44;;;;;;;5.28;2.55;;;11.80;74.80;;;;;;4872903;29;20037;-90
2021/11/20 09:46:18;;;;;;;3.75;2.35;;;11.80;76.20;;;;;;4876487;29;20052;-92
2021/11/20 09:48:54;;;;;;;3.60;2.35;;;11.80;75.70;;;;;;4882389;29;20041;-92
2021/11/20 09:51:23;;;;;;;3.75;2.53;;;11.70;73.90;;;;;;4881900;29;20044;-90
2021/11/20 09:53:52;;;;;;;5.50;2.58;;;11.70;73.00;;;;;;4894451;29;20033;-86
2021/11/20 09:56:31;;;;;;;4.13;2.40;;;11.60;71.70;;;;;;4876335;29;20045;-84
2021/11/20 09:59:06;;;;;;;3.90;2.53;;;11.50;71.30;;;;;;4895462;29;20847;-80
2021/11/20 10:01:42;;;;;;;3.03;2.30;;;11.40;71.30;;;;;;4895246;29;20044;-82
2021/11/20 10:04:31;;;;;;;4.28;2.33;;;11.40;71.40;;;;;;4897194;29;20395;-84
2021/11/20 10:07:11;;;;;;;6.03;2.17;;;11.20;70.40;;;;;;4898691;29;20443;-80
2021/11/20 10:09:47;;;;;;;4.63;1.90;;;11.20;70.10;;;;;;4894941;29;20040;-80
2021/11/20 10:12:14;;;;;;;3.47;1.55;;;11.20;70.80;;;;;;4896178;29;20075;-82
2021/11/20 10:14:43;;;;;;;3.58;1.75;;;11.10;70.20;;;;;;4895077;29;20045;-84
2021/11/20 10:17:29;;;;;;;2.05;1.40;;;11.10;70.00;;;;;;4896371;29;20047;-81
2021/11/20 10:20:17;;;;;;;2.40;1.60;;;11.00;70.30;;;;;;4897552;29;20511;-83
2021/11/20 10:23:09;;;;;;;3.50;1.40;;;11.00;69.80;;;;;;4897694;29;20080;-83
2021/11/20 10:25:56;;;;;;;1.50;1.02;;;11.00;70.30;;;;;;4895790;29;20543;-85
2021/11/20 10:28:58;;;;;;;4.07;1.45;;;11.00;70.30;;;;;;4897762;29;20479;-85
2021/11/20 10:31:29;;;;;;;2.08;1.42;;;10.90;70.10;;;;;;4896616;29;20088;-83
2021/11/20 10:34:26;;;;;;;4.53;1.25;;;10.90;70.10;;;;;;4895722;29;20043;-84
2021/11/20 10:36:57;;;;;;;2.75;1.30;;;10.90;70.00;;;;;;4896632;29;20052;-85
2021/11/20 10:39:37;;;;;;;1.38;1.08;;;10.90;70.70;;;;;;4895945;29;20047;-86
2021/11/20 10:42:10;;;;;;;2.33;1.17;;;10.80;71.00;;;;;;4895440;29;20376;-85
2021/11/20 10:44:39;;;;;;;2.72;1.67;;;10.80;71.60;;;;;;4895071;29;20127;-88
2021/11/20 10:47:11;;;;;;;2.25;1.17;;;10.80;71.60;;;;;;4904442;29;20040;-87
2021/11/20 10:50:16;;;;;;;1.08;1.00;;;10.80;71.60;;;;;;4899331;29;20041;-89
2021/11/20 10:53:09;;;;;;;3.03;1.30;;;10.80;71.40;;;;;;4897992;29;20044;-88
2021/11/20 10:55:49;;;;;;;1.15;0.80;;;10.80;71.70;;;;;;4880193;29;20040;-86
2021/11/20 10:58:42;;;;;;;1.25;1.05;;;10.80;71.90;;;;;;4896481;29;20055;-86
2021/11/20 11:01:50;;;;;;;1.10;0.90;;;10.80;71.10;;;;;;4895254;29;20373;-90
2021/11/20 11:05:00;;;;;;;1.88;0.80;;;10.80;71.20;;;;;;4899331;29;20499;-89
2021/11/20 11:07:45;;;;;;;2.70;1.02;;;10.80;71.60;;;;;;4820328;29;20042;-87
2021/11/20 11:10:19;;;;;;;2.63;1.15;;;10.80;71.60;;;;;;4820478;29;20037;-85
2021/11/20 11:13:13;;;;;;;1.50;0.77;;;10.70;71.10;;;;;;4871478;29;20048;-86
2021/11/20 11:15:59;;;;;;;0.85;0.80;;;10.70;71.30;;;;;;4894358;29;20040;-87
2021/11/20 11:18:40;;;;;;;1.38;1.00;;;10.70;71.30;;;;;;4894156;29;20040;-87
2021/11/20 11:21:32;;;;;;;2.35;0.85;;;10.70;71.00;;;;;;4893980;29;20037;-86
2021/11/20 11:24:10;;;;;;;1.00;0.90;;;10.60;71.30;;;;;;4891834;29;20372;-86
2021/11/20 11:26:46;;;;;;;2.00;0.98;;;10.70;71.10;;;;;;4893158;29;20067;-87
2021/11/20 11:29:46;;;;;;;1.48;0.60;;;10.60;70.60;;;;;;4891956;29;20433;-84
2021/11/20 11:32:14;;;;;;;0.77;0.63;;;10.60;70.50;;;;;;4876120;29;20039;-87
2021/11/20 11:34:52;;;;;;;1.92;0.80;;;10.60;70.80;;;;;;4879241;29;20135;-86
2021/11/20 11:37:51;;;;;;;0.95;0.75;;;10.50;70.90;;;;;;4892186;29;20416;-85
2021/11/20 11:40:38;;;;;;;1.60;0.55;;;10.50;70.70;;;;;;4889017;29;20092;-82
2021/11/20 11:43:10;;;;;;;3.90;0.60;;;10.50;70.30;;;;;;4892388;29;20065;-87
2021/11/20 11:46:11;;;;;;;1.42;0.73;;;10.50;75.50;;;;;;4895512;29;20032;-93
2021/11/20 11:49:15;;;;;;;2.42;0.73;;;10.60;76.60;;;;;;4906777;29;20036;-91
2021/11/20 11:52:15;;;;;;;1.88;0.70;;;10.80;76.30;;;;;;4907545;29;20060;-86
2021/11/20 11:54:49;;;;;;;3.33;1.00;;;10.90;75.90;;;;;;4983644;23;20056;-92
2021/11/20 11:57:15;;;;;;;2.22;0.70;;;11.00;75.50;;;;;;4921016;29;20059;-91
2021/11/20 11:59:57;;;;;;;2.10;0.55;;;11.00;75.20;;;;;;4914467;29;20039;-91
2021/11/20 12:02:41;;;;;;;1.27;0.47;;;11.10;75.00;;;;;;4918292;29;20032;-90
2021/11/20 12:05:35;;;;;;;1.75;0.70;;;11.20;74.70;;;;;;4923031;29;20028;-95
2021/11/20 12:08:41;;;;;;;1.55;0.75;;;11.30;74.40;;;;;;4901020;29;20503;-91
2021/11/20 12:11:12;;;;;;;4.20;0.80;;;11.30;74.10;;;;;;4820410;29;20083;-87
2021/11/20 12:13:45;;;;;;;1.65;0.65;;;11.40;74.30;;;;;;4806108;29;20524;-90
2021/11/20 12:16:14;;;;;;;2.58;1.15;;;11.40;74.30;;;;;;4885794;29;20032;-90
2021/11/20 12:18:46;;;;;;;3.05;0.80;;;11.40;74.40;;;;;;4913251;29;20035;-88
2021/11/20 12:21:27;;;;;;;3.03;0.90;;;11.50;74.30;;;;;;4912946;29;20393;-86
2021/11/20 12:24:22;;;;;;;1.98;1.02;;;11.50;74.30;;;;;;4912216;29;20038;-84
2021/11/20 12:27:01;;;;;;;2.72;0.90;;;11.60;74.40;;;;;;4912915;29;20059;-84
2021/11/20 12:29:56;;;;;;;5.75;1.20;;;11.60;74.70;;;;;;4911792;29;20028;-84
2021/11/20 12:33:00;;;;;;;2.88;1.10;;;11.60;75.00;;;;;;4896146;29;20091;-85
2021/11/20 12:35:57;;;;;;;2.20;1.00;;;11.70;75.40;;;;;;4898356;29;20046;-85
2021/11/20 12:38:47;;;;;;;2.70;1.00;;;11.70;75.50;;;;;;4913482;29;20034;-85
2021/11/20 12:41:51;;;;;;;1.92;0.95;;;11.70;75.60;;;;;;4912957;29;20064;-86
2021/11/20 12:44:35;;;;;;;3.70;1.40;;;11.80;75.70;;;;;;4912123;29;20154;-86
2021/11/20 12:47:13;;;;;;;2.60;1.33;;;11.80;75.60;;;;;;4911562;29;20574;-87
2021/11/20 12:49:44;;;;;;;3.92;1.10;;;11.80;75.60;;;;;;4911761;29;20647;-84
2021/11/20 12:52:18;;;;;;;5.13;1.17;;;11.80;75.80;;;;;;4900730;29;20124;-85
2021/11/20 12:54:56;;;;;;;3.00;1.45;;;11.80;77.10;;;;;;4882061;29;20043;-88
2021/11/20 12:57:40;;;;;;;2.10;0.90;;;11.90;76.80;;;;;;4914329;29;20036;-83
2021/11/20 13:00:21;;;;;;;3.28;1.33;;;11.90;76.60;;;;;;4912008;29;20032;-83
2021/11/20 13:03:22;;;;;;;1.80;1.02;;;12.00;76.70;;;;;;4894965;29;20463;-83
2021/11/20 13:05:56;;;;;;;2.28;0.90;;;12.00;76.60;;;;;;4912095;29;20032;-90
2021/11/20 13:08:26;;;;;;;2.20;1.33;;;12.00;76.40;;;;;;4911943;29;20111;-86
2021/11/20 13:11:05;;;;;;;7.60;1.02;;;12.00;77.80;;;;;;4911489;29;20079;-83
2021/11/20 13:13:41;;;;;;;3.33;1.08;;;12.10;78.00;;;;;;4916030;29;20127;-84
2021/11/20 13:16:19;;;;;;;3.05;0.98;;;12.10;77.70;;;;;;4911851;29;20043;-83
2021/11/20 13:19:11;;;;;;;4.50;1.10;;;12.10;77.60;;;;;;4911702;29;20032;-84
2021/11/20 13:21:41;;;;;;;3.65;0.70;;;12.10;77.40;;;;;;4803594;29;20445;-84
2021/11/20 13:24:21;;;;;;;3.45;0.98;;;12.20;77.30;;;;;;4834157;29;20057;-84
2021/11/20 13:27:11;;;;;;;4.90;1.17;;;12.20;77.30;;;;;;4886193;29;20044;-84
2021/11/20 13:29:57;;;;;;;3.63;0.80;;;12.20;77.30;;;;;;4910354;29;20048;-82
2021/11/20 13:32:23;;;;;;;1.30;0.75;;;12.20;77.20;;;;;;4911122;29;20047;-83